TAF Text Data
IDs:
Format:
Raw Decoded Include METAR

Data at: 0957 UTC 20 Sep 2019

Region: TOP
KATL 200942Z 2010/2112 08009KT P6SM FEW250

KBOS 200837Z 2009/2112 30005KT P6SM FEW250
  FM201900 27006KT P6SM FEW120
  FM210900 30005KT P6SM SKC


KBWI 200840Z 2009/2112 00000KT P6SM FEW250
  FM201300 25004KT P6SM SKC
  FM202300 20004KT P6SM SKC


KCLE 200919Z 2009/2112 17005KT P6SM SCT060
  FM201200 17007KT P6SM FEW250
  FM211100 19006KT P6SM SCT070


KCLT 200804Z 2008/2112 35004KT P6SM SKC
  FM201600 16004KT P6SM FEW050
  FM210000 VRB03KT P6SM SKC


KCVG 200855Z 2009/2112 18006KT P6SM SCT080
  FM201400 21008KT P6SM SCT050
  FM210100 19006KT P6SM SCT150


KDCA 200840Z 2009/2112 VRB03KT P6SM FEW250
  FM201400 22005KT P6SM SKC


KDEN 200902Z 2009/2112 18013G20KT P6SM BKN150
  FM201100 21012KT P6SM SCT150
  FM201500 22014G22KT P6SM FEW120 SCT220
  FM202000 22020G32KT P6SM FEW120 SCT220
  FM210100 25013KT P6SM FEW120
  FM210400 30011KT P6SM SKC
  FM210800 VRB05KT P6SM SKC


KDFW 200907Z 2009/2112 11003KT P6SM VCSH OVC012
  TEMPO 2009/2012 BKN008
  FM201600 17014KT P6SM BKN025
  FM201800 18015KT P6SM SCT030
  FM202100 18015KT P6SM VCTS SCT050CB
  FM210100 15011KT P6SM SCT250


KDTW 200840Z 2009/2112 VRB03KT P6SM SCT060 SCT250
  TEMPO 2009/2013 4SM BR
  FM201300 20007KT P6SM BKN200
  FM202200 22005KT P6SM SCT060


KEWR 200833Z 2009/2112 23005KT P6SM SCT250
  FM201000 28006KT P6SM SCT250
  FM201700 28010KT P6SM SCT250
  FM202200 25008KT P6SM SCT250
  FM210100 27007KT P6SM SCT250
  FM210900 30004KT P6SM FEW250


KFLL 200850Z 2009/2112 07012G20KT P6SM VCSH SCT030 SCT050
  FM201500 07016G26KT P6SM VCSH SCT030 BKN050


KIAD 200840Z 2009/2112 00000KT P6SM FEW250
  FM201300 22004KT P6SM SKC
  FM210000 18004KT P6SM SKC
  FM210800 00000KT P6SM SKC


KIAH 200917Z 2009/2112 14004KT P6SM BKN020 BKN030 OVC050
  FM201300 15010KT P6SM VCSH SCT015 BKN025
  FM201700 15012KT P6SM VCTS SCT015 BKN025CB
  FM210000 13009KT P6SM SCT025 SCT050
  FM210600 13005KT P6SM SCT020 SCT050


KJFK 200833Z 2009/2112 26007KT P6SM FEW250
  FM201700 24010KT P6SM SCT250
  FM202100 20012KT P6SM SCT250
  FM210200 25008KT P6SM SCT250
  FM210900 29005KT P6SM FEW250


KLAS 200859Z 2009/2112 28008KT P6SM SKC
  FM201200 VRB05KT P6SM SKC
  FM201600 35011KT P6SM SKC
  FM202100 03005KT P6SM SKC
  FM210400 32007KT P6SM SKC


KLAX 200904Z 2009/2112 VRB03KT P6SM FEW014
  FM201100 VRB03KT P6SM BKN015
  FM201700 25006KT P6SM FEW020
  FM201900 26012KT P6SM SKC
  FM210400 VRB03KT P6SM SKC


KLGA 200833Z 2009/2112 23005KT P6SM FEW250
  FM201000 29006KT P6SM SCT250
  FM201700 29010KT P6SM SCT250
  FM202200 24009KT P6SM SCT250
  FM210100 27007KT P6SM SCT250
  FM210900 30004KT P6SM FEW250


KMCO 200926Z 2009/2112 05009KT P6SM SCT035 SCT070
  FM201400 07015G24KT P6SM SCT040 SCT080
  FM210000 06012KT P6SM SCT035
  FM210400 05008KT P6SM SCT035


KMDW 200909Z 2009/2112 17004KT P6SM FEW050 BKN250
  FM202200 13006KT P6SM SCT040 BKN200
  FM210200 15007KT P6SM SCT050 BKN200
  FM210700 20007KT P6SM SCT040 BKN120


KMEM 200859Z 2009/2112 15007KT P6SM SCT040 BKN150
  FM201300 16010KT P6SM OVC050
  FM201600 17009KT P6SM SCT050 BKN150
  FM210000 17007KT P6SM BKN250


KMIA 200850Z 2009/2112 05013KT P6SM VCSH SCT030 SCT050
  FM201500 06015G25KT P6SM VCSH SCT030 BKN050


KMSP 200921Z 2009/2112 12005KT P6SM FEW250
  FM201100 13004KT 4SM BR SCT020 BKN060
  TEMPO 2011/2013 2SM BR BKN015
  FM201400 13008KT P6SM VCSH BKN050
  FM201800 14011KT P6SM SCT120
  FM211000 17008KT 6SM -RA BR BKN050


KORD 200909Z 2009/2112 17004KT P6SM FEW050 BKN250
  FM202200 13006KT P6SM SCT040 BKN200
  FM210200 15007KT P6SM SCT050 BKN200
  FM210700 20007KT P6SM SCT040 BKN120


KPDX 200804Z 2008/2106 VRB03KT P6SM SCT025 OVC060
  FM201200 VRB03KT P6SM BKN022 OVC050
  FM202000 VRB04KT P6SM BKN035 OVC050


KPHL 200856Z 2009/2112 24004KT P6SM SCT250
  FM201500 25008KT P6SM FEW250
  FM210200 24004KT P6SM FEW250


KPHX 200849Z 2009/2112 12006KT P6SM SKC
  FM201800 18007KT P6SM SKC
  FM202000 24010G17KT P6SM SKC
  FM210200 26007KT P6SM SKC
  FM211100 13005KT P6SM SKC


KPIT 200855Z 2009/2112 12003KT P6SM SKC
  FM201600 18005KT P6SM SCT050


KSAN 200908Z 2009/2112 VRB05KT P6SM FEW010 SCT025
  TEMPO 2010/2014 BKN025
  FM202000 28008KT P6SM FEW020
  FM210200 VRB05KT P6SM FEW010


KSEA 200901Z 2009/2112 22004KT P6SM VCSH BKN008 OVC050
  FM201200 18003KT P6SM OVC010
  FM201600 18005KT P6SM OVC015
  FM202100 23005KT P6SM BKN025
  FM210200 18004KT P6SM BKN050 BKN120


KSFO 200918Z 2009/2112 29005KT P6SM SKC
  FM201500 04004KT P6SM SKC
  FM201900 29014KT P6SM SKC
  FM210400 29008KT P6SM SKC
  FM210800 VRB03KT P6SM SKC


KSLC 200853Z 2009/2112 35005KT P6SM BKN060
  FM201100 31007KT P6SM -SHRA BKN050 OVC100
  FM201300 33006KT P6SM -RA BKN025 OVC050
  FM202000 34007KT P6SM -SHRA BKN035 OVC050
  FM210000 15006KT P6SM VCSH BKN050 BKN080
  FM210300 15004KT P6SM SCT050 BKN080


KSTL 200900Z 2009/2112 VRB05KT P6SM FEW250
  FM201500 18005KT P6SM SCT045
  FM210100 18008KT P6SM BKN150


KTPA 200902Z 2009/2112 03007KT P6SM FEW040
  FM201500 07010G15KT P6SM FEW030
  FM210600 05005KT P6SM SKC